Time;durP1;ratioP1;P1;durP2;ratioP2;P2;SDS_P1;SDS_P2;PMS_P1;PMS_P2;Temp;Humidity;BMP_temperature;BMP_pressure;BME280_temperature;BME280_humidity;BME280_pressure;Samples;Min_cycle;Max_cycle;Signal;HPM_P1;HPM_P2
2023/02/09 00:00:47;;;;;;;11.73;5.70;;;-4.20;99.90;;;-3.32;100.00;99733.28;5000602;28;20886;-79
2023/02/09 00:03:17;;;;;;;10.03;5.90;;;-4.20;99.90;;;-3.41;100.00;99726.81;4999531;28;20519;-78
2023/02/09 00:05:47;;;;;;;11.60;6.63;;;-4.30;99.90;;;-3.34;100.00;99733.38;4995842;28;20518;-79
2023/02/09 00:08:18;;;;;;;10.00;6.47;;;-4.20;99.90;;;-3.36;100.00;99729.19;4999655;28;20556;-79
2023/02/09 00:10:47;;;;;;;14.67;5.27;;;-4.30;99.90;;;-3.31;100.00;99727.28;5001547;28;20522;-79
2023/02/09 00:13:22;;;;;;;14.27;6.60;;;-4.20;99.90;;;-3.30;100.00;99719.56;5002225;28;20459;-79
2023/02/09 00:15:54;;;;;;;31.50;6.20;;;-4.00;99.90;;;-3.26;100.00;99725.38;5001904;28;20469;-79
2023/02/09 00:18:27;;;;;;;13.63;6.70;;;-4.00;99.90;;;-3.25;100.00;99720.22;5003040;28;20864;-79
2023/02/09 00:20:59;;;;;;;11.50;5.80;;;-4.00;99.90;;;-3.27;100.00;99721.16;5002770;28;20554;-78
2023/02/09 00:23:31;;;;;;;11.37;7.00;;;-4.00;99.90;;;-3.42;100.00;99722.59;5002073;28;20562;-79
2023/02/09 00:26:02;;;;;;;10.30;5.60;;;-4.20;99.90;;;-3.39;100.00;99713.97;5001308;28;20549;-79
2023/02/09 00:28:31;;;;;;;11.80;6.30;;;-4.20;99.90;;;-3.36;100.00;99721.50;5000346;28;20471;-78
2023/02/09 00:31:06;;;;;;;10.37;5.33;;;-4.00;99.90;;;-3.44;100.00;99718.44;5001856;28;20530;-79
2023/02/09 00:33:36;;;;;;;14.40;6.40;;;-4.20;99.90;;;-3.46;100.00;99715.09;5001926;28;21080;-78
2023/02/09 00:36:09;;;;;;;9.33;5.93;;;-4.30;99.90;;;-3.43;100.00;99720.06;5001080;28;21145;-79
2023/02/09 00:38:41;;;;;;;12.40;6.30;;;-4.20;99.90;;;-3.49;100.00;99710.09;5002197;28;20439;-79
2023/02/09 00:41:13;;;;;;;14.63;6.20;;;-4.30;99.90;;;-3.54;100.00;99712.84;5002010;28;21219;-79
2023/02/09 00:43:44;;;;;;;10.07;6.00;;;-4.30;99.90;;;-3.59;100.00;99718.13;5001877;28;20875;-79
2023/02/09 00:46:15;;;;;;;18.60;6.00;;;-4.40;99.90;;;-3.60;100.00;99708.78;5000579;28;20463;-79
2023/02/09 00:48:45;;;;;;;14.73;6.03;;;-4.40;99.90;;;-3.57;100.00;99716.31;5003398;28;20467;-79
2023/02/09 00:51:15;;;;;;;12.37;7.10;;;-4.40;99.90;;;-3.61;100.00;99711.41;5004244;28;20449;-79
2023/02/09 00:53:45;;;;;;;10.73;6.10;;;-4.40;99.90;;;-3.68;100.00;99708.22;5004140;28;20559;-79
2023/02/09 00:56:15;;;;;;;12.97;5.73;;;-4.50;99.90;;;-3.61;100.00;99707.09;5005268;28;20470;-78
2023/02/09 00:58:44;;;;;;;8.33;5.67;;;-4.40;99.90;;;-3.66;100.00;99698.78;5004508;28;20554;-79
2023/02/09 01:01:14;;;;;;;11.17;6.40;;;-4.50;99.90;;;-3.77;100.00;99703.47;5003042;28;20574;-79
2023/02/09 01:03:44;;;;;;;12.73;6.60;;;-4.60;99.90;;;-3.68;100.00;99705.66;5005686;28;20497;-78
2023/02/09 01:06:14;;;;;;;11.13;5.90;;;-4.50;99.90;;;-3.72;100.00;99706.69;5006923;28;20462;-78
2023/02/09 01:08:46;;;;;;;11.30;6.00;;;-4.70;99.90;;;-3.81;100.00;99704.47;5003133;28;20548;-78
2023/02/09 01:11:17;;;;;;;12.90;5.70;;;-4.70;99.90;;;-3.79;100.00;99702.69;5005017;28;20464;-79
2023/02/09 01:13:47;;;;;;;11.37;5.97;;;-4.60;99.90;;;-3.80;100.00;99705.31;5004254;28;20803;-79
2023/02/09 01:16:19;;;;;;;13.00;6.80;;;-4.60;99.90;;;-3.84;100.00;99711.41;5004912;28;20454;-78
2023/02/09 01:18:49;;;;;;;9.80;5.17;;;-4.70;99.90;;;-3.88;100.00;99708.13;5006300;28;20491;-79
2023/02/09 01:21:21;;;;;;;12.73;5.80;;;-4.70;99.90;;;-3.88;100.00;99700.47;5006697;28;20480;-78
2023/02/09 01:23:53;;;;;;;7.63;6.07;;;-4.70;99.90;;;-3.87;100.00;99704.69;5005843;28;20949;-79
2023/02/09 01:26:23;;;;;;;14.73;6.10;;;-4.70;99.90;;;-3.85;100.00;99707.22;5004601;28;20447;-78
2023/02/09 01:28:53;;;;;;;14.20;5.20;;;-4.70;99.90;;;-3.87;100.00;99704.69;5002819;28;20551;-78
2023/02/09 01:31:26;;;;;;;11.60;7.10;;;-4.70;99.90;;;-3.97;100.00;99712.75;5003184;28;20558;-79
2023/02/09 01:33:58;;;;;;;14.47;6.17;;;-4.80;99.90;;;-3.93;100.00;99704.09;5005346;28;20772;-79
2023/02/09 01:36:28;;;;;;;10.50;6.30;;;-4.80;99.90;;;-3.93;100.00;99699.81;5008165;28;20475;-78
2023/02/09 01:39:04;;;;;;;7.53;4.83;;;-4.80;99.90;;;-3.95;100.00;99700.75;5007375;28;21096;-78
2023/02/09 01:41:35;;;;;;;7.60;5.00;;;-4.80;99.90;;;-3.94;100.00;99700.69;5006588;28;20466;-78
2023/02/09 01:44:27;;;;;;;8.03;5.47;;;-4.70;99.90;;;-3.98;100.00;99696.59;5007228;28;21270;-78
2023/02/09 01:46:57;;;;;;;10.80;4.80;;;-4.70;99.90;;;-4.04;100.00;99693.44;5007777;28;20475;-79
2023/02/09 01:49:28;;;;;;;7.90;4.37;;;-4.90;99.90;;;-4.09;100.00;99696.13;5007054;28;20502;-78
2023/02/09 01:52:06;;;;;;;11.67;5.07;;;-4.90;99.90;;;-4.14;100.00;99695.50;5006974;28;20469;-78
2023/02/09 01:54:43;;;;;;;9.17;5.00;;;-5.00;99.90;;;-4.04;100.00;99686.59;5007505;28;20553;-79
2023/02/09 01:57:17;;;;;;;7.27;5.03;;;-4.90;99.90;;;-4.09;100.00;99680.81;5006465;28;20819;-79
2023/02/09 01:59:56;;;;;;;19.37;7.10;;;-4.90;99.90;;;-4.04;100.00;99675.56;5007186;28;20999;-78
2023/02/09 02:02:26;;;;;;;11.17;6.40;;;-4.90;99.90;;;-4.11;100.00;99685.16;5004937;28;20546;-79
2023/02/09 02:04:57;;;;;;;9.30;5.47;;;-5.00;99.90;;;-4.03;100.00;99679.78;5006186;28;20556;-79
2023/02/09 02:07:33;;;;;;;8.57;5.30;;;-4.90;99.90;;;-4.15;100.00;99675.94;5003641;28;20629;-78
2023/02/09 02:10:06;;;;;;;8.87;5.67;;;-5.00;99.90;;;-4.16;100.00;99677.66;5003376;28;20987;-78
2023/02/09 02:12:38;;;;;;;10.23;4.93;;;-4.90;99.90;;;-4.18;100.00;99669.22;5005644;28;20441;-78
2023/02/09 02:15:09;;;;;;;13.07;5.30;;;-4.90;99.90;;;-4.18;100.00;99678.59;5003042;28;20470;-79
2023/02/09 02:18:03;;;;;;;8.57;4.97;;;-5.00;99.90;;;-4.20;100.00;99671.00;5004960;28;20918;-78
2023/02/09 02:21:28;;;;;;;8.10;4.97;;;-5.00;99.90;;;-4.21;100.00;99674.44;5005058;28;20435;-78
2023/02/09 02:24:28;;;;;;;9.97;4.97;;;-5.10;99.90;;;-4.25;100.00;99672.06;5003815;28;20497;-78
2023/02/09 02:27:02;;;;;;;14.23;5.60;;;-5.10;99.90;;;-4.25;100.00;99672.06;5004136;28;20467;-79
2023/02/09 02:30:12;;;;;;;9.10;4.77;;;-5.10;99.90;;;-4.29;100.00;99670.50;5004180;28;20531;-78
2023/02/09 02:32:55;;;;;;;13.17;6.10;;;-5.20;99.90;;;-4.32;100.00;99668.88;5003687;28;20545;-79
2023/02/09 02:35:36;;;;;;;9.23;4.90;;;-5.20;99.90;;;-4.30;100.00;99668.81;5003179;28;20510;-78
2023/02/09 02:38:18;;;;;;;11.93;5.63;;;-5.20;99.90;;;-4.24;100.00;99666.06;5002938;28;20526;-78
2023/02/09 02:41:03;;;;;;;13.67;5.43;;;-5.10;99.90;;;-4.35;100.00;99661.34;5006758;28;20459;-78
2023/02/09 02:43:48;;;;;;;7.43;5.23;;;-5.20;99.90;;;-4.42;100.00;99661.59;5004040;28;20470;-79
2023/02/09 02:46:30;;;;;;;10.03;5.30;;;-5.30;99.90;;;-4.44;100.00;99650.63;5007165;28;20432;-79
2023/02/09 02:49:09;;;;;;;14.73;5.90;;;-5.30;99.90;;;-4.59;100.00;99652.00;5004827;28;20466;-79
2023/02/09 02:51:43;;;;;;;11.27;5.13;;;-5.50;99.90;;;-4.54;100.00;99650.09;5004355;28;20597;-78
2023/02/09 02:54:20;;;;;;;14.67;6.20;;;-5.40;99.90;;;-4.52;100.00;99647.50;5006803;28;20489;-79
2023/02/09 02:56:56;;;;;;;13.93;5.27;;;-5.40;99.90;;;-4.57;100.00;99645.94;5005521;28;20455;-79
2023/02/09 02:59:32;;;;;;;9.80;5.10;;;-5.40;99.90;;;-4.57;100.00;99653.59;5004691;28;21070;-78
2023/02/09 03:02:08;;;;;;;9.63;5.50;;;-5.50;99.90;;;-4.59;100.00;99649.44;5005042;28;20463;-79
2023/02/09 03:04:43;;;;;;;13.27;5.70;;;-5.40;99.90;;;-4.68;100.00;99642.09;5006576;28;20459;-79
2023/02/09 03:07:16;;;;;;;10.43;5.33;;;-5.40;99.90;;;-4.69;100.00;99648.09;5005625;28;20445;-78
2023/02/09 03:09:50;;;;;;;10.60;5.13;;;-5.60;99.90;;;-4.63;100.00;99658.09;5005042;28;20578;-78
2023/02/09 03:12:34;;;;;;;8.37;4.80;;;-5.50;99.90;;;-4.68;100.00;99658.22;5005455;28;20464;-79
2023/02/09 03:15:22;;;;;;;9.90;5.13;;;-5.60;99.90;;;-4.61;100.00;99657.13;5004881;28;20437;-79
2023/02/09 03:18:04;;;;;;;7.60;5.27;;;-5.50;99.90;;;-4.58;100.00;99653.63;5004077;28;20485;-79
2023/02/09 03:20:49;;;;;;;16.77;6.03;;;-5.40;99.90;;;-4.61;100.00;99658.84;5005051;28;20886;-79
2023/02/09 03:23:32;;;;;;;11.17;5.37;;;-5.50;99.90;;;-4.65;100.00;99662.41;5006081;28;20438;-78
2023/02/09 03:26:11;;;;;;;8.80;6.40;;;-5.50;99.90;;;-4.69;100.00;99656.59;5003952;28;20529;-78
2023/02/09 03:28:45;;;;;;;15.00;5.50;;;-5.50;99.90;;;-4.76;100.00;99654.28;5006169;28;20458;-78
2023/02/09 03:31:16;;;;;;;9.13;4.57;;;-5.60;99.90;;;-4.69;100.00;99653.19;5004425;28;20811;-78
2023/02/09 03:33:47;;;;;;;11.63;4.90;;;-5.60;99.90;;;-4.75;100.00;99646.56;5004932;28;20466;-79
2023/02/09 03:36:21;;;;;;;5.80;4.03;;;-5.60;99.90;;;-4.83;100.00;99645.19;5005163;28;20467;-78
2023/02/09 03:38:51;;;;;;;7.30;4.73;;;-5.70;99.90;;;-4.82;100.00;99645.13;5004895;28;20592;-78
2023/02/09 03:41:21;;;;;;;8.93;4.87;;;-5.70;99.90;;;-4.80;100.00;99653.56;5005132;28;20472;-78
2023/02/09 03:46:38;;;;;;;9.27;4.70;;;-5.70;99.90;;;-4.70;100.00;99652.38;5005782;28;20474;-78
2023/02/09 03:49:07;;;;;;;10.03;5.53;;;-5.60;99.90;;;-4.78;100.00;99651.78;5004428;28;20536;-79
2023/02/09 03:51:39;;;;;;;8.93;4.87;;;-5.60;99.90;;;-4.83;100.00;99647.72;5004684;28;20981;-79
2023/02/09 03:54:08;;;;;;;19.83;6.40;;;-5.60;99.90;;;-4.87;100.00;99647.00;5003988;28;20932;-78
2023/02/09 03:56:37;;;;;;;9.97;5.77;;;-5.70;99.90;;;-4.93;100.00;99649.78;5005091;28;21169;-78
2023/02/09 03:59:07;;;;;;;10.93;5.07;;;-5.70;99.90;;;-4.95;100.00;99637.94;5003868;28;20501;-79
2023/02/09 04:01:37;;;;;;;8.93;5.47;;;-5.70;99.90;;;-5.00;100.00;99643.22;5003834;28;20546;-79
2023/02/09 04:04:06;;;;;;;10.87;5.30;;;-5.80;99.90;;;-5.04;100.00;99656.94;5003236;28;20522;-78
2023/02/09 04:06:37;;;;;;;9.10;4.90;;;-5.90;99.90;;;-4.96;100.00;99647.28;5001288;28;22213;-78
2023/02/09 04:09:08;;;;;;;9.20;4.87;;;-5.80;99.90;;;-5.00;100.00;99653.41;5001252;28;20894;-79
2023/02/09 04:11:37;;;;;;;7.40;4.50;;;-5.90;99.90;;;-4.99;100.00;99652.50;5000226;28;20438;-79
2023/02/09 04:14:08;;;;;;;8.63;4.60;;;-5.80;99.90;;;-5.07;100.00;99649.38;5000485;28;20468;-73
2023/02/09 04:16:39;;;;;;;10.43;5.10;;;-5.90;99.90;;;-5.04;100.00;99644.19;5002287;28;20492;-79
2023/02/09 04:19:10;;;;;;;8.87;4.30;;;-5.80;99.90;;;-5.09;100.00;99654.53;5003109;28;20894;-78
2023/02/09 04:21:40;;;;;;;8.63;5.47;;;-5.90;99.90;;;-5.03;100.00;99653.47;5000414;28;20482;-78
2023/02/09 04:24:10;;;;;;;8.50;5.03;;;-5.90;99.90;;;-4.94;100.00;99658.28;5002038;28;20470;-79
2023/02/09 04:26:39;;;;;;;10.27;4.90;;;-5.80;99.90;;;-4.90;100.00;99659.84;5004244;28;20445;-78
2023/02/09 04:29:09;;;;;;;11.33;5.43;;;-5.70;99.90;;;-4.89;100.00;99653.84;5005596;28;21074;-74
2023/02/09 04:31:38;;;;;;;7.07;4.60;;;-5.70;99.90;;;-4.91;100.00;99654.81;5003269;28;20441;-78
2023/02/09 04:34:07;;;;;;;8.27;5.10;;;-5.70;99.90;;;-4.90;100.00;99656.47;5006906;28;20492;-78
2023/02/09 04:36:37;;;;;;;10.07;5.30;;;-5.70;99.90;;;-4.86;100.00;99651.19;5008655;28;20466;-79
2023/02/09 04:39:07;;;;;;;8.33;4.80;;;-5.60;99.90;;;-4.86;100.00;99646.09;5009207;28;20522;-78
2023/02/09 04:41:37;;;;;;;10.13;5.50;;;-5.50;99.90;;;-4.85;100.00;99646.94;5008874;28;20466;-78
2023/02/09 04:44:07;;;;;;;15.47;6.50;;;-5.60;99.90;;;-4.88;100.00;99649.59;5009479;28;20500;-79
2023/02/09 04:46:37;;;;;;;9.20;4.87;;;-5.70;99.90;;;-4.87;100.00;99649.56;5008532;28;20437;-79
2023/02/09 04:49:06;;;;;;;6.73;5.37;;;-5.70;99.90;;;-4.89;100.00;99648.75;5007987;28;20561;-78
2023/02/09 04:51:36;;;;;;;11.00;5.07;;;-5.70;99.90;;;-4.97;100.00;99655.84;5006047;28;20833;-79
2023/02/09 04:54:06;;;;;;;10.30;5.30;;;-5.80;99.90;;;-4.96;100.00;99649.84;5002794;28;20437;-78
2023/02/09 04:56:36;;;;;;;17.67;6.23;;;-5.80;99.90;;;-4.95;100.00;99656.63;4998755;28;20504;-78
2023/02/09 05:01:54;;;;;;;10.43;5.00;;;-5.70;99.90;;;-5.01;100.00;99658.53;5005461;28;21646;-78
2023/02/09 05:04:24;;;;;;;8.07;4.90;;;-5.80;99.90;;;-5.06;100.00;99658.69;5009041;28;20478;-78
2023/02/09 05:06:54;;;;;;;15.40;6.50;;;-5.80;99.90;;;-5.05;100.00;99656.97;5006225;28;20552;-78
2023/02/09 05:09:24;;;;;;;10.57;5.77;;;-5.80;99.90;;;-5.04;100.00;99663.75;5004270;28;20573;-78
2023/02/09 05:11:54;;;;;;;12.07;6.53;;;-5.80;99.90;;;-5.04;100.00;99672.22;5003614;28;20468;-79
2023/02/09 05:14:23;;;;;;;15.47;6.90;;;-5.80;99.90;;;-5.05;100.00;99672.25;5003545;28;20754;-80
2023/02/09 05:16:53;;;;;;;18.00;7.23;;;-5.70;99.90;;;-5.13;100.00;99675.06;5005093;28;20557;-78
2023/02/09 05:19:24;;;;;;;13.17;5.70;;;-5.80;99.90;;;-5.09;100.00;99681.72;5003867;28;20558;-77
2023/02/09 05:21:53;;;;;;;15.40;6.40;;;-5.90;99.90;;;-5.13;100.00;99678.44;5005928;28;20500;-78
2023/02/09 05:24:24;;;;;;;10.03;5.00;;;-5.90;99.90;;;-5.10;100.00;99669.84;5006452;28;20445;-77
2023/02/09 05:26:54;;;;;;;8.43;5.30;;;-5.90;99.90;;;-5.11;100.00;99668.22;5007638;28;20454;-77
2023/02/09 05:29:22;;;;;;;7.60;5.20;;;-5.90;99.90;;;-5.11;100.00;99668.22;5007354;28;20476;-77
2023/02/09 05:31:51;;;;;;;9.23;5.47;;;-5.90;99.90;;;-5.12;100.00;99667.38;5005736;28;20511;-77
2023/02/09 05:34:22;;;;;;;8.03;4.93;;;-5.90;99.90;;;-5.12;100.00;99666.53;5005667;28;20466;-79
2023/02/09 05:36:52;;;;;;;14.40;5.20;;;-5.90;99.90;;;-5.12;100.00;99664.00;5005197;28;20558;-78
2023/02/09 05:39:23;;;;;;;11.07;5.20;;;-5.90;99.90;;;-5.20;100.00;99664.22;5005241;28;20629;-78
2023/02/09 05:44:40;;;;;;;11.27;5.90;;;-5.90;99.90;;;-5.26;100.00;99668.69;5007384;28;20525;-77
2023/02/09 05:47:10;;;;;;;11.70;5.80;;;-6.00;99.90;;;-5.31;100.00;99665.47;5008260;28;20505;-77
2023/02/09 05:49:39;;;;;;;9.60;6.27;;;-6.10;99.90;;;-5.39;100.00;99667.41;5008976;28;20444;-77
2023/02/09 05:52:11;;;;;;;13.37;5.50;;;-6.20;99.90;;;-5.39;100.00;99677.63;5006101;28;20498;-77
2023/02/09 05:54:43;;;;;;;11.33;5.73;;;-6.20;99.90;;;-5.45;100.00;99663.34;5008981;28;20528;-77
2023/02/09 05:57:12;;;;;;;11.07;5.73;;;-6.30;99.90;;;-5.39;100.00;99675.06;5009251;28;20469;-77
2023/02/09 05:59:41;;;;;;;10.60;5.37;;;-6.20;99.90;;;-5.42;100.00;99667.53;5009093;28;20571;-77
2023/02/09 06:02:11;;;;;;;21.33;6.67;;;-6.20;99.90;;;-5.46;100.00;99666.78;5008561;28;20441;-77
2023/02/09 06:04:42;;;;;;;9.80;5.33;;;-6.10;99.90;;;-5.49;100.00;99671.13;5008118;28;20453;-77
2023/02/09 06:07:12;;;;;;;7.67;5.20;;;-6.20;99.90;;;-5.59;100.00;99671.41;5008835;28;20482;-77
2023/02/09 06:09:43;;;;;;;9.87;4.80;;;-6.40;99.90;;;-5.53;100.00;99675.50;5009126;28;20552;-77
2023/02/09 06:12:13;;;;;;;10.80;6.90;;;-6.40;99.90;;;-5.60;100.00;99667.22;5008046;28;20524;-77
2023/02/09 06:14:42;;;;;;;12.40;7.10;;;-6.40;99.90;;;-5.61;100.00;99668.06;5008122;28;20479;-77
2023/02/09 06:17:12;;;;;;;13.33;7.00;;;-6.50;99.90;;;-5.63;100.00;99667.31;5007838;28;20560;-78
2023/02/09 06:19:41;;;;;;;13.63;6.47;;;-6.50;99.90;;;-5.59;100.00;99671.41;5008815;28;20476;-77
2023/02/09 06:22:11;;;;;;;21.23;6.90;;;-6.50;99.90;;;-5.62;100.00;99671.50;5006691;28;20559;-77
2023/02/09 06:24:42;;;;;;;13.97;6.80;;;-6.60;99.90;;;-5.68;100.00;99675.94;5007865;28;20967;-77
2023/02/09 06:27:12;;;;;;;11.47;7.50;;;-6.60;99.90;;;-5.75;100.00;99665.09;5008273;28;20476;-77
2023/02/09 06:29:42;;;;;;;33.10;9.90;;;-6.60;99.90;;;-5.79;100.00;99671.16;5008456;28;20511;-77
2023/02/09 06:32:12;;;;;;;15.47;7.50;;;-6.70;99.90;;;-5.81;100.00;99672.94;5007900;28;21022;-77
2023/02/09 06:34:42;;;;;;;22.20;7.70;;;-6.70;99.90;;;-5.74;100.00;99669.34;5008757;28;20533;-77
2023/02/09 06:37:12;;;;;;;16.23;7.70;;;-6.60;99.90;;;-5.71;100.00;99676.88;5008259;28;20565;-77
2023/02/09 06:39:43;;;;;;;13.03;7.43;;;-6.60;99.90;;;-5.68;100.00;99676.78;5007690;28;20476;-77
2023/02/09 06:42:13;;;;;;;20.53;7.90;;;-6.60;99.90;;;-5.72;100.00;99682.84;5006296;28;21126;-77
2023/02/09 06:44:43;;;;;;;15.90;7.93;;;-6.40;99.90;;;-5.71;100.00;99693.88;5008831;28;20477;-77
2023/02/09 06:47:12;;;;;;;18.13;8.87;;;-6.40;99.90;;;-5.71;100.00;99696.41;5008122;28;20473;-77
2023/02/09 06:49:42;;;;;;;18.20;8.73;;;-6.50;99.90;;;-5.74;100.00;99697.34;5005827;28;20466;-77
2023/02/09 06:52:12;;;;;;;15.20;7.60;;;-6.60;99.90;;;-5.77;100.00;99697.44;5007583;28;20446;-77
2023/02/09 06:54:43;;;;;;;16.53;6.77;;;-6.60;99.90;;;-5.81;100.00;99698.41;5007783;28;20498;-77
2023/02/09 06:57:13;;;;;;;18.10;7.73;;;-6.60;99.90;;;-5.86;100.00;99696.88;5007132;28;20985;-77
2023/02/09 06:59:43;;;;;;;12.37;6.73;;;-6.70;99.90;;;-5.83;100.00;99695.06;5006418;28;20440;-78
2023/02/09 07:02:13;;;;;;;14.60;7.00;;;-6.70;99.90;;;-5.84;100.00;99701.03;5007396;28;20436;-77
2023/02/09 07:04:43;;;;;;;18.13;7.93;;;-6.70;99.90;;;-5.81;100.00;99698.41;5008780;28;20518;-78
2023/02/09 07:07:12;;;;;;;11.70;6.57;;;-6.60;99.90;;;-5.88;100.00;99701.19;5006900;28;20530;-77
2023/02/09 07:09:43;;;;;;;24.30;8.80;;;-6.70;99.90;;;-5.87;100.00;99698.63;5005938;28;20470;-77
2023/02/09 07:12:13;;;;;;;21.50;7.67;;;-6.80;99.90;;;-5.88;100.00;99696.94;5006743;28;20436;-77
2023/02/09 07:14:42;;;;;;;17.60;7.40;;;-6.70;99.90;;;-5.87;100.00;99703.72;5004945;28;20523;-76
2023/02/09 07:17:13;;;;;;;19.27;8.60;;;-6.70;99.90;;;-5.89;100.00;99708.00;5007062;28;20472;-77
2023/02/09 07:19:42;;;;;;;28.43;10.20;;;-6.70;99.90;;;-5.89;100.00;99710.53;5006260;28;20447;-77
2023/02/09 07:22:13;;;;;;;15.27;8.20;;;-6.70;99.90;;;-5.89;100.00;99702.91;5009288;28;21355;-77
2023/02/09 07:24:45;;;;;;;12.60;6.43;;;-6.70;99.90;;;-5.82;100.00;99704.38;5008296;28;20515;-77
2023/02/09 07:27:16;;;;;;;16.53;7.77;;;-6.60;99.90;;;-5.81;100.00;99703.50;5006680;28;20490;-77
2023/02/09 07:29:45;;;;;;;17.80;8.47;;;-6.60;99.90;;;-5.79;100.00;99714.47;5006037;28;20546;-76
2023/02/09 07:32:15;;;;;;;19.47;6.80;;;-6.50;99.90;;;-5.77;100.00;99709.34;5006282;28;20517;-77
2023/02/09 07:34:46;;;;;;;16.90;6.87;;;-6.40;99.90;;;-5.75;100.00;99710.94;5006967;28;20475;-77
2023/02/09 07:37:16;;;;;;;14.97;8.13;;;-6.50;99.90;;;-5.80;100.00;99712.81;5007249;28;20443;-77
2023/02/09 07:39:48;;;;;;;20.40;7.67;;;-6.60;99.90;;;-5.78;100.00;99711.03;5005877;28;20951;-77
2023/02/09 07:42:18;;;;;;;21.53;8.33;;;-6.60;99.90;;;-5.79;100.00;99717.00;5005052;28;20481;-77
2023/02/09 07:44:49;;;;;;;17.90;7.70;;;-6.60;99.90;;;-5.80;100.00;99717.91;5007873;28;20427;-77
2023/02/09 07:47:18;;;;;;;15.20;7.13;;;-6.60;99.90;;;-5.80;100.00;99715.38;5006492;28;20953;-76
2023/02/09 07:49:47;;;;;;;24.87;7.67;;;-6.60;99.90;;;-5.83;100.00;99717.97;5008034;28;20504;-77
2023/02/09 07:52:18;;;;;;;16.60;7.87;;;-6.70;99.90;;;-5.79;100.00;99722.09;5006307;28;20445;-77
2023/02/09 07:54:51;;;;;;;16.50;8.30;;;-6.60;99.90;;;-5.76;100.00;99714.38;5006384;28;20445;-77
2023/02/09 07:57:20;;;;;;;13.23;6.63;;;-6.60;99.90;;;-5.76;100.00;99719.47;5008312;28;20943;-77
2023/02/09 07:59:51;;;;;;;18.63;8.83;;;-6.50;99.90;;;-5.75;100.00;99710.94;5004967;28;20845;-77
2023/02/09 08:02:33;;;;;;;20.87;7.87;;;-6.50;99.90;;;-5.72;100.00;99720.22;5005114;28;20509;-77
2023/02/09 08:05:06;;;;;;;16.30;8.77;;;-6.50;99.90;;;-5.66;100.00;99720.06;5007147;28;20441;-77
2023/02/09 08:07:37;;;;;;;23.37;9.33;;;-6.40;99.90;;;-5.62;100.00;99719.06;5007194;28;20461;-77
2023/02/09 08:10:11;;;;;;;15.83;8.77;;;-6.30;99.90;;;-5.65;100.00;99714.91;5005747;28;20430;-77
2023/02/09 08:15:34;;;;;;;32.70;9.67;;;-6.40;99.90;;;-5.57;100.00;99724.88;5006830;28;20472;-77
2023/02/09 08:18:12;;;;;;;19.63;9.43;;;-6.30;99.90;;;-5.60;100.00;99730.88;5006768;28;20544;-77
2023/02/09 08:20:45;;;;;;;14.97;8.10;;;-6.40;99.90;;;-5.52;100.00;99734.94;5006627;28;20482;-77
2023/02/09 08:23:22;;;;;;;25.67;9.80;;;-6.10;99.90;;;-5.49;100.00;99734.84;5006732;28;20437;-77
2023/02/09 08:25:54;;;;;;;19.70;9.20;;;-6.00;99.90;;;-5.50;100.00;99730.59;5007680;28;20556;-77
2023/02/09 08:28:23;;;;;;;24.00;9.93;;;-6.20;99.90;;;-5.50;100.00;99738.25;5006661;28;20443;-77
2023/02/09 08:31:11;;;;;;;26.07;10.20;;;-6.20;99.90;;;-5.47;100.00;99733.06;5005345;28;20459;-76
2023/02/09 08:33:40;;;;;;;25.37;9.63;;;-6.10;99.90;;;-5.44;100.00;99725.31;5005922;28;21003;-77
2023/02/09 08:36:12;;;;;;;14.47;9.40;;;-6.10;99.90;;;-5.43;100.00;99727.00;5006069;28;20453;-76
2023/02/09 08:38:43;;;;;;;17.13;7.60;;;-6.20;99.90;;;-5.40;100.00;99737.09;5005797;28;20445;-77
2023/02/09 08:41:15;;;;;;;23.57;9.60;;;-6.10;99.90;;;-5.36;100.00;99729.31;5005254;28;20498;-77
2023/02/09 08:43:49;;;;;;;20.70;8.50;;;-6.00;99.90;;;-5.31;100.00;99721.53;5004994;28;20436;-77
2023/02/09 08:46:19;;;;;;;18.27;7.90;;;-6.00;99.90;;;-5.28;100.00;99716.34;5006661;28;20536;-76
2023/02/09 08:48:49;;;;;;;20.33;9.40;;;-5.90;99.90;;;-5.24;100.00;99712.81;5005509;28;20502;-77
2023/02/09 08:51:18;;;;;;;23.70;9.80;;;-5.90;99.90;;;-5.21;100.00;99707.63;5006100;28;20845;-77
2023/02/09 08:53:50;;;;;;;22.80;10.10;;;-5.80;99.90;;;-5.17;100.00;99699.00;5006572;28;20469;-77
2023/02/09 08:56:23;;;;;;;39.83;9.40;;;-5.90;99.90;;;-5.17;100.00;99709.19;5006035;28;20465;-76
2023/02/09 08:58:51;;;;;;;16.20;8.30;;;-5.90;99.90;;;-5.12;100.00;99712.44;5006076;28;20987;-76
2023/02/09 09:01:21;;;;;;;31.00;10.17;;;-5.80;99.90;;;-5.10;100.00;99711.47;5005300;28;20481;-77
2023/02/09 09:03:52;;;;;;;18.40;10.50;;;-5.80;99.90;;;-5.03;100.00;99716.41;5006386;28;20834;-77
2023/02/09 09:06:22;;;;;;;23.93;10.50;;;-5.70;99.90;;;-5.01;100.00;99715.47;5004683;28;20459;-77
2023/02/09 09:08:51;;;;;;;21.07;10.53;;;-5.70;99.90;;;-4.98;100.00;99707.72;5006854;28;20463;-77
2023/02/09 09:11:22;;;;;;;24.00;11.20;;;-5.70;99.90;;;-4.94;100.00;99713.56;5004749;28;20542;-76
2023/02/09 09:13:53;;;;;;;22.57;9.20;;;-5.60;99.90;;;-4.88;100.00;99716.75;5008622;28;20479;-77
2023/02/09 09:16:23;;;;;;;29.03;11.50;;;-5.50;99.90;;;-4.85;100.00;99706.44;5010879;28;20442;-77
2023/02/09 09:18:54;;;;;;;26.10;12.23;;;-5.50;99.90;;;-4.80;100.00;99709.69;5009626;28;20520;-76
2023/02/09 09:21:24;;;;;;;27.37;12.40;;;-5.40;99.90;;;-4.77;100.00;99701.91;5008437;28;20509;-77
2023/02/09 09:23:55;;;;;;;25.23;10.57;;;-5.30;99.90;;;-4.73;100.00;99700.94;5010870;28;21116;-77
2023/02/09 09:26:28;;;;;;;24.80;11.20;;;-5.30;99.90;;;-4.68;100.00;99698.22;5010598;28;20561;-77
2023/02/09 09:28:58;;;;;;;22.50;9.80;;;-5.30;99.90;;;-4.64;100.00;99703.16;5010558;28;20464;-77
2023/02/09 09:31:32;;;;;;;26.60;11.47;;;-5.30;99.90;;;-4.59;100.00;99706.41;5009228;28;20555;-77
2023/02/09 09:34:03;;;;;;;24.10;10.33;;;-5.20;99.90;;;-4.53;100.00;99712.19;5008045;28;21290;-77
2023/02/09 09:36:32;;;;;;;33.80;11.20;;;-5.20;99.90;;;-4.48;100.00;99707.78;5009126;28;20474;-77
2023/02/09 09:39:02;;;;;;;20.17;10.30;;;-5.10;99.90;;;-4.43;100.00;99714.38;5007718;28;20442;-77
2023/02/09 09:41:37;;;;;;;30.63;11.60;;;-5.00;99.90;;;-4.39;100.00;99720.19;5008128;28;20569;-77
2023/02/09 09:44:17;;;;;;;21.50;11.20;;;-4.90;99.90;;;-4.33;100.00;99730.19;5008480;28;20467;-77
2023/02/09 09:46:51;;;;;;;29.57;10.90;;;-4.80;99.90;;;-4.26;100.00;99727.38;5009408;28;20517;-77
2023/02/09 09:49:27;;;;;;;21.67;9.80;;;-4.80;99.90;;;-4.20;100.00;99729.72;5009684;28;20493;-77
2023/02/09 09:52:05;;;;;;;26.07;10.03;;;-4.70;99.90;;;-4.15;100.00;99725.28;5009446;28;20482;-77
2023/02/09 09:54:37;;;;;;;22.93;11.20;;;-4.70;99.90;;;-4.08;100.00;99731.00;5009141;28;20564;-77
2023/02/09 09:57:20;;;;;;;19.80;10.00;;;-4.60;99.90;;;-4.01;100.00;99729.06;5009050;28;20459;-77
2023/02/09 09:59:52;;;;;;;19.80;8.80;;;-4.60;99.90;;;-3.95;100.00;99722.00;5008984;28;20497;-76
2023/02/09 10:02:31;;;;;;;20.70;9.80;;;-4.50;99.90;;;-3.88;100.00;99733.69;5008652;28;20502;-77
2023/02/09 10:05:17;;;;;;;18.83;10.47;;;-4.40;99.90;;;-3.83;100.00;99726.69;5008826;28;20471;-77
2023/02/09 10:07:56;;;;;;;22.20;9.80;;;-4.40;99.90;;;-3.78;100.00;99719.69;5008360;28;20484;-77
2023/02/09 10:10:38;;;;;;;19.90;11.07;;;-4.20;99.90;;;-3.70;100.00;99717.69;5007329;28;20431;-77
2023/02/09 10:13:20;;;;;;;18.97;8.97;;;-4.30;99.90;;;-3.66;100.00;99709.03;5008788;28;20503;-78
2023/02/09 10:15:51;;;;;;;17.57;10.13;;;-4.20;99.90;;;-3.59;100.00;99715.56;5007463;28;21045;-77
2023/02/09 10:18:24;;;;;;;18.17;10.27;;;-4.10;99.90;;;-3.51;100.00;99714.44;5008660;28;20465;-77
2023/02/09 10:20:56;;;;;;;25.73;10.90;;;-4.00;99.90;;;-3.45;100.00;99714.19;5008570;28;20467;-77
2023/02/09 10:23:36;;;;;;;18.20;10.50;;;-4.00;99.90;;;-3.37;100.00;99719.88;5006739;28;20578;-77
2023/02/09 10:26:21;;;;;;;18.53;9.87;;;-3.90;99.90;;;-3.30;100.00;99716.19;5009118;28;21226;-77
2023/02/09 10:28:55;;;;;;;21.33;10.23;;;-3.80;99.90;;;-3.22;100.00;99721.81;5007367;28;20467;-77
2023/02/09 10:31:32;;;;;;;23.70;10.27;;;-3.70;99.90;;;-3.17;100.00;99725.88;5006374;28;20991;-77
2023/02/09 10:34:10;;;;;;;19.80;10.17;;;-3.70;99.90;;;-3.09;100.00;99717.91;5007579;28;20464;-77
2023/02/09 10:36:50;;;;;;;19.17;9.40;;;-3.60;99.90;;;-3.01;100.00;99730.34;5006808;28;20480;-77
2023/02/09 10:39:22;;;;;;;21.67;9.23;;;-3.50;99.90;;;-2.93;100.00;99734.28;5007729;28;20538;-77
2023/02/09 10:41:55;;;;;;;19.03;9.50;;;-3.30;99.90;;;-2.86;100.00;99732.31;5007294;28;20500;-77